Time;durP1;ratioP1;P1;durP2;ratioP2;P2;SDS_P1;SDS_P2;PMS_P1;PMS_P2;Temp;Humidity;BMP_temperature;BMP_pressure;BME280_temperature;BME280_humidity;BME280_pressure;Samples;Min_cycle;Max_cycle;Signal;HPM_P1;HPM_P2
2021/09/16 00:02:27;;;;;;;32.63;18.27;;;13.80;99.90;;;;;;5030204;28;20053;-89
2021/09/16 00:04:56;;;;;;;35.08;19.23;;;13.80;99.90;;;;;;5012514;28;20050;-89
2021/09/16 00:07:34;;;;;;;34.95;18.17;;;13.70;99.90;;;;;;5038051;28;20064;-89
2021/09/16 00:10:11;;;;;;;32.67;17.80;;;13.70;99.90;;;;;;5012929;28;20046;-89
2021/09/16 00:12:46;;;;;;;33.03;15.90;;;13.80;99.90;;;;;;5031287;28;20060;-89
2021/09/16 00:15:18;;;;;;;26.05;14.65;;;13.70;99.90;;;;;;5014290;28;20065;-89
2021/09/16 00:17:55;;;;;;;32.65;17.33;;;13.90;99.90;;;;;;5014237;28;20058;-90
2021/09/16 00:20:26;;;;;;;27.92;16.55;;;13.40;99.90;;;;;;5005182;28;20038;-88
2021/09/16 00:23:01;;;;;;;30.38;16.67;;;13.70;99.90;;;;;;5049513;28;20069;-91
2021/09/16 00:25:33;;;;;;;27.20;14.63;;;13.70;99.90;;;;;;5015458;28;20048;-89
2021/09/16 00:28:03;;;;;;;32.88;16.50;;;13.70;99.90;;;;;;5036571;28;20054;-87
2021/09/16 00:33:28;;;;;;;33.10;15.65;;;13.70;99.90;;;;;;5038763;28;19921;-90
2021/09/16 00:36:20;;;;;;;31.85;16.25;;;13.70;99.90;;;;;;5051021;28;20046;-89
2021/09/16 00:39:54;;;;;;;29.40;16.52;;;13.50;99.90;;;;;;5043787;28;20049;-90
2021/09/16 00:42:38;;;;;;;30.80;15.15;;;12.90;99.90;;;;;;5050886;28;20050;-90
2021/09/16 00:48:56;;;;;;;31.13;16.10;;;13.60;99.90;;;;;;5041941;28;20053;-87
2021/09/16 00:51:50;;;;;;;38.47;19.15;;;13.60;99.90;;;;;;5028394;28;20409;-89
2021/09/16 00:54:22;;;;;;;36.47;18.88;;;13.50;99.90;;;;;;5049648;28;20045;-90
2021/09/16 00:56:53;;;;;;;36.58;19.63;;;13.80;99.90;;;;;;5049415;28;20063;-89
2021/09/16 00:59:31;;;;;;;38.70;19.90;;;13.60;99.90;;;;;;5034709;28;20049;-89
2021/09/16 01:02:02;;;;;;;34.45;19.38;;;13.60;99.90;;;;;;5034584;28;20052;-89
2021/09/16 01:04:46;;;;;;;35.47;19.00;;;13.50;99.90;;;;;;5012679;28;20050;-89
2021/09/16 01:07:20;;;;;;;42.58;22.30;;;13.50;99.90;;;;;;5050683;28;20243;-89
2021/09/16 01:09:59;;;;;;;36.70;19.73;;;13.70;99.90;;;;;;5035571;28;20053;-90
2021/09/16 01:12:33;;;;;;;37.42;19.25;;;13.50;99.90;;;;;;5051189;28;20441;-88
2021/09/16 01:15:05;;;;;;;30.88;15.73;;;12.90;99.90;;;;;;5050217;28;20060;-88
2021/09/16 01:22:26;;;;;;;32.22;17.08;;;13.50;99.90;;;;;;5036338;28;20057;-88
2021/09/16 01:28:47;;;;;;;30.77;15.60;;;13.30;99.90;;;;;;5030631;28;20049;-89
2021/09/16 01:31:38;;;;;;;;;;;13.30;99.90;;;;;;5018781;28;20053;-88
2021/09/16 01:34:37;;;;;;;25.58;13.32;;;13.30;99.90;;;;;;5045600;28;19939;-89
2021/09/16 01:37:20;;;;;;;31.08;16.70;;;14.10;99.90;;;;;;5063682;28;20031;-88
2021/09/16 01:40:29;;;;;;;32.33;18.23;;;13.30;99.90;;;;;;5033288;28;20049;-88
2021/09/16 01:46:50;;;;;;;31.65;17.83;;;13.20;99.90;;;;;;5055325;28;20048;-87
2021/09/16 01:49:56;;;;;;;36.05;20.75;;;13.20;99.90;;;;;;5037837;28;20052;-89
2021/09/16 01:52:29;;;;;;;30.60;16.67;;;13.10;99.90;;;;;;5036847;28;20049;-90
2021/09/16 01:55:04;;;;;;;29.02;15.25;;;13.10;99.90;;;;;;5038205;28;20052;-89
2021/09/16 01:57:37;;;;;;;37.63;17.98;;;13.10;99.90;;;;;;5022844;28;20055;-90
2021/09/16 02:01:02;;;;;;;31.57;17.93;;;13.00;99.90;;;;;;5021371;28;20416;-90
2021/09/16 02:04:13;;;;;;;35.72;15.25;;;13.00;99.90;;;;;;5039215;28;20038;-90
2021/09/16 02:07:39;;;;;;;33.85;16.63;;;13.00;99.90;;;;;;5061317;28;20118;-89
2021/09/16 02:10:15;;;;;;;30.13;16.42;;;12.90;99.90;;;;;;5045411;28;20033;-89
2021/09/16 02:12:57;;;;;;;;;;;13.40;99.90;;;;;;5061974;28;20047;-90
2021/09/16 02:15:31;;;;;;;39.70;20.52;;;12.90;99.90;;;;;;5077603;28;19950;-88
2021/09/16 02:18:06;;;;;;;38.70;20.38;;;11.60;99.90;;;;;;5060285;28;20037;-89
2021/09/16 02:20:36;;;;;;;35.00;16.85;;;12.90;99.90;;;;;;5022235;28;20059;-88
2021/09/16 02:23:22;;;;;;;43.30;20.35;;;12.90;99.90;;;;;;5036541;28;20052;-91
2021/09/16 02:38:43;;;;;;;40.60;19.50;;;12.90;99.90;;;;;;5048599;28;20041;-90
2021/09/16 02:41:12;;;;;;;39.53;20.33;;;12.80;99.90;;;;;;5040073;28;20060;-88
2021/09/16 02:49:02;;;;;;;35.63;17.88;;;12.80;99.90;;;;;;5045720;28;20032;-88
2021/09/16 02:51:38;;;;;;;39.47;19.65;;;12.80;99.90;;;;;;5041511;28;20045;-88
2021/09/16 02:54:10;;;;;;;38.00;20.95;;;12.80;99.90;;;;;;5038220;28;20034;-88
2021/09/16 02:56:45;;;;;;;36.83;20.17;;;12.80;99.90;;;;;;5040174;28;20047;-87
2021/09/16 02:59:51;;;;;;;36.17;19.40;;;11.90;99.90;;;;;;5024699;28;20029;-87
2021/09/16 03:02:24;;;;;;;36.78;19.48;;;12.70;99.90;;;;;;5045504;28;20038;-88
2021/09/16 03:05:12;;;;;;;44.10;19.15;;;12.70;99.90;;;;;;5067825;28;20036;-86
2021/09/16 03:07:58;;;;;;;41.10;20.30;;;12.70;99.90;;;;;;5038859;23;20046;-84
2021/09/16 03:10:31;;;;;;;40.40;18.77;;;12.70;99.90;;;;;;5024300;28;20030;-84
2021/09/16 03:13:01;;;;;;;47.80;22.02;;;12.80;99.90;;;;;;5030428;28;20046;-84
2021/09/16 03:15:31;;;;;;;41.13;22.77;;;12.70;99.90;;;;;;5027496;28;20046;-83
2021/09/16 03:18:03;;;;;;;42.42;20.45;;;12.70;99.90;;;;;;5010686;28;20057;-84
2021/09/16 03:20:31;;;;;;;;;;;12.70;99.90;;;;;;5027553;28;20064;-85
2021/09/16 03:23:06;;;;;;;43.75;23.05;;;12.70;99.90;;;;;;5040723;28;19932;-85
2021/09/16 03:25:47;;;;;;;36.80;20.75;;;12.70;99.90;;;;;;5006677;28;20056;-85
2021/09/16 03:28:18;;;;;;;50.33;24.90;;;12.70;99.90;;;;;;4989873;28;20377;-84
2021/09/16 03:30:46;;;;;;;45.88;20.83;;;13.90;99.90;;;;;;5007295;28;20049;-85
2021/09/16 03:33:15;;;;;;;37.22;21.17;;;12.70;99.90;;;;;;4999561;28;20050;-84
2021/09/16 03:35:47;;;;;;;37.33;18.63;;;12.70;99.90;;;;;;5017921;28;20042;-85
2021/09/16 03:38:15;;;;;;;40.05;22.42;;;12.70;99.90;;;;;;4990276;28;20619;-85
2021/09/16 03:40:44;;;;;;;53.95;24.35;;;12.60;99.90;;;;;;5005865;28;20280;-84
2021/09/16 03:43:15;;;;;;;48.22;23.30;;;12.60;99.90;;;;;;4973808;28;20046;-84
2021/09/16 03:45:55;;;;;;;43.17;24.75;;;12.70;99.90;;;;;;5005199;28;20046;-85
2021/09/16 03:48:28;;;;;;;46.50;23.45;;;12.70;99.90;;;;;;4975560;28;20044;-86
2021/09/16 03:51:01;;;;;;;47.67;24.02;;;12.70;99.90;;;;;;5004452;28;20054;-84
2021/09/16 03:53:32;;;;;;;44.17;23.55;;;12.70;99.90;;;;;;4997066;28;20057;-85
2021/09/16 03:56:00;;;;;;;43.33;21.50;;;12.70;99.90;;;;;;4973026;28;20060;-86
2021/09/16 03:58:29;;;;;;;42.10;22.60;;;12.70;99.90;;;;;;5006882;28;20053;-85
2021/09/16 04:00:57;;;;;;;44.58;21.65;;;12.70;99.90;;;;;;4997233;28;20050;-85
2021/09/16 04:03:26;;;;;;;48.22;22.63;;;12.70;99.90;;;;;;4989444;28;20045;-86
2021/09/16 04:05:56;;;;;;;39.85;21.65;;;12.70;99.90;;;;;;4993554;28;20054;-85
2021/09/16 04:08:29;;;;;;;56.30;25.30;;;12.70;99.90;;;;;;4980915;28;20051;-84
2021/09/16 04:11:06;;;;;;;46.70;21.77;;;12.40;99.90;;;;;;5009959;28;20054;-83
2021/09/16 04:13:38;;;;;;;45.97;21.65;;;12.70;99.90;;;;;;5010111;28;20034;-84
2021/09/16 04:16:08;;;;;;;43.50;22.10;;;12.90;99.90;;;;;;5008173;28;20050;-85
2021/09/16 04:18:35;;;;;;;45.25;23.25;;;12.70;99.90;;;;;;5006400;28;20052;-85
2021/09/16 04:21:05;;;;;;;51.05;24.52;;;12.70;99.90;;;;;;5007840;28;20046;-85
2021/09/16 04:23:34;;;;;;;53.20;25.67;;;12.70;99.90;;;;;;5006458;28;20057;-86
2021/09/16 04:26:04;;;;;;;45.42;23.70;;;12.70;99.90;;;;;;5003624;28;20054;-84
2021/09/16 04:28:42;;;;;;;49.95;25.65;;;12.70;99.90;;;;;;4989633;28;20046;-85
2021/09/16 04:31:14;;;;;;;46.47;25.13;;;12.50;99.90;;;;;;4985455;28;20061;-86
2021/09/16 04:33:42;;;;;;;42.72;23.50;;;12.70;99.90;;;;;;4989983;28;20064;-84
2021/09/16 04:36:13;;;;;;;49.05;24.77;;;12.70;99.90;;;;;;5007043;28;20042;-85
2021/09/16 04:38:41;;;;;;;42.30;21.42;;;12.70;99.90;;;;;;5005903;28;20061;-85
2021/09/16 04:41:13;;;;;;;47.10;22.02;;;12.80;99.90;;;;;;4990038;28;20054;-85
2021/09/16 04:43:44;;;;;;;41.08;21.70;;;12.60;99.90;;;;;;4976032;28;20054;-86
2021/09/16 04:46:20;;;;;;;41.10;20.52;;;12.60;99.90;;;;;;4988820;28;20062;-85
2021/09/16 04:48:51;;;;;;;40.35;20.25;;;12.60;99.90;;;;;;5004903;28;20726;-85
2021/09/16 04:51:23;;;;;;;42.22;22.15;;;12.60;99.90;;;;;;5004035;28;20042;-83
2021/09/16 04:54:03;;;;;;;43.97;23.02;;;12.60;99.90;;;;;;4989334;28;20053;-85
2021/09/16 04:56:36;;;;;;;38.67;19.10;;;12.60;99.90;;;;;;5008585;28;20070;-85
2021/09/16 04:59:21;;;;;;;36.47;20.65;;;12.60;99.90;;;;;;5004251;28;20046;-85
2021/09/16 05:01:52;;;;;;;47.45;21.60;;;12.60;99.90;;;;;;5011919;28;20057;-85
2021/09/16 05:04:22;;;;;;;46.08;22.48;;;12.60;99.90;;;;;;5025734;28;20057;-85
2021/09/16 05:06:56;;;;;;;37.55;19.05;;;12.60;99.90;;;;;;5023599;28;20050;-86
2021/09/16 05:09:41;;;;;;;41.22;21.65;;;12.60;99.90;;;;;;5011626;28;20052;-86
2021/09/16 05:12:11;;;;;;;53.83;23.23;;;12.70;99.90;;;;;;5026864;28;20052;-86
2021/09/16 05:14:41;;;;;;;52.45;22.27;;;12.60;99.90;;;;;;5011119;28;20058;-87
2021/09/16 05:17:26;;;;;;;47.97;22.30;;;12.60;99.90;;;;;;5009520;28;20049;-86
2021/09/16 05:20:07;;;;;;;49.28;21.65;;;12.60;99.90;;;;;;4992819;28;20063;-87
2021/09/16 05:22:39;;;;;;;42.67;21.58;;;12.60;99.90;;;;;;5008424;28;20061;-87
2021/09/16 05:25:10;;;;;;;41.50;21.55;;;12.30;99.90;;;;;;4977111;28;20057;-85
2021/09/16 05:27:44;;;;;;;44.53;25.70;;;12.70;99.90;;;;;;5005487;28;20050;-85
2021/09/16 05:30:29;;;;;;;43.83;21.23;;;12.60;99.90;;;;;;5000027;28;20050;-85
2021/09/16 05:33:13;;;;;;;38.97;21.38;;;12.60;99.90;;;;;;4977607;28;20122;-86
2021/09/16 05:35:58;;;;;;;42.03;20.63;;;12.50;99.90;;;;;;4997697;28;20070;-85
2021/09/16 05:38:27;;;;;;;38.07;22.07;;;13.20;99.90;;;;;;4992214;28;20046;-86
2021/09/16 05:40:57;;;;;;;36.97;19.65;;;12.50;99.90;;;;;;5008489;28;20058;-86
2021/09/16 05:43:27;;;;;;;43.28;20.30;;;12.40;99.90;;;;;;4995561;28;20054;-85
2021/09/16 05:45:56;;;;;;;41.08;22.27;;;12.40;99.90;;;;;;5012388;28;20058;-85
2021/09/16 05:48:26;;;;;;;39.28;20.75;;;12.50;99.90;;;;;;5004960;28;20050;-85
2021/09/16 05:50:56;;;;;;;45.72;20.05;;;12.40;99.90;;;;;;5007691;28;20057;-86
2021/09/16 05:53:25;;;;;;;41.45;21.58;;;12.40;99.90;;;;;;4982638;28;20046;-84
2021/09/16 05:55:55;;;;;;;41.10;21.30;;;12.40;99.90;;;;;;5010843;28;20042;-86
2021/09/16 05:58:28;;;;;;;43.28;22.27;;;12.40;99.90;;;;;;5007057;28;20051;-85
2021/09/16 06:00:57;;;;;;;44.03;23.35;;;12.40;99.90;;;;;;5000962;28;20042;-86
2021/09/16 06:03:27;;;;;;;43.17;23.70;;;12.40;99.90;;;;;;5005769;28;20073;-87
2021/09/16 06:06:04;;;;;;;37.47;20.10;;;12.30;99.90;;;;;;5009166;28;20309;-86
2021/09/16 06:09:02;;;;;;;50.80;22.38;;;12.50;99.90;;;;;;5010427;28;20325;-86
2021/09/16 06:11:33;;;;;;;48.60;24.35;;;11.50;99.90;;;;;;5004091;28;20050;-85
2021/09/16 06:14:06;;;;;;;40.15;20.15;;;12.50;99.90;;;;;;5002980;28;20050;-85
2021/09/16 06:16:34;;;;;;;42.13;20.88;;;12.50;99.90;;;;;;5002975;28;20046;-85
2021/09/16 06:19:03;;;;;;;43.35;23.65;;;12.60;99.90;;;;;;5017561;28;20054;-86
2021/09/16 06:21:32;;;;;;;41.33;20.40;;;12.60;99.90;;;;;;5020834;28;20054;-88
2021/09/16 06:24:01;;;;;;;47.75;23.75;;;12.70;99.90;;;;;;5004832;28;20057;-88
2021/09/16 06:26:43;;;;;;;45.25;23.13;;;12.70;99.90;;;;;;4987885;28;20061;-88
2021/09/16 06:29:49;;;;;;;43.05;20.65;;;12.80;99.90;;;;;;5005581;28;20062;-87
2021/09/16 06:33:13;;;;;;;44.83;22.40;;;12.90;99.90;;;;;;5199076;27;20383;-86
2021/09/16 06:35:42;;;;;;;44.00;21.88;;;12.90;99.90;;;;;;5161831;27;20048;-86
2021/09/16 06:38:41;;;;;;;43.30;22.27;;;13.00;99.90;;;;;;5174946;27;20035;-86
2021/09/16 06:41:25;;;;;;;41.53;21.55;;;13.10;99.90;;;;;;5150839;27;20212;-87
2021/09/16 06:44:30;;;;;;;39.58;19.23;;;13.20;99.90;;;;;;5090369;28;20055;-85
2021/09/16 06:47:01;;;;;;;39.90;21.30;;;13.20;99.90;;;;;;5117256;28;20060;-86
2021/09/16 06:49:36;;;;;;;41.42;22.17;;;13.20;99.90;;;;;;5088279;28;20048;-87
2021/09/16 06:52:13;;;;;;;44.78;21.70;;;13.30;99.90;;;;;;5090237;22;20049;-93
2021/09/16 06:55:35;;;;;;;41.58;21.85;;;13.40;99.90;;;;;;5019677;28;20041;-92
2021/09/16 06:58:50;;;;;;;42.83;21.70;;;13.50;99.90;;;;;;5021932;28;20046;-92
2021/09/16 07:01:48;;;;;;;42.10;21.67;;;12.40;99.90;;;;;;4992496;28;20053;-92
2021/09/16 07:04:39;;;;;;;41.63;22.70;;;13.40;99.90;;;;;;5001599;28;20057;-92
2021/09/16 07:07:46;;;;;;;51.58;23.55;;;13.30;99.90;;;;;;5004896;28;20064;-92
2021/09/16 07:11:25;;;;;;;43.70;23.85;;;13.40;99.90;;;;;;4999320;28;20719;-93
2021/09/16 07:14:41;;;;;;;;;;;;;;;;;;;;;
2021/09/16 07:17:40;;;;;;;44.47;24.10;;;13.60;99.90;;;;;;4997902;28;20042;-92
2021/09/16 07:20:28;;;;;;;51.00;24.63;;;13.60;99.90;;;;;;4996449;28;20053;-92
2021/09/16 07:23:31;;;;;;;50.45;25.65;;;13.70;99.90;;;;;;4989310;28;20050;-85
2021/09/16 07:26:18;;;;;;;49.50;24.73;;;13.80;99.90;;;;;;5014027;28;20050;-92
2021/09/16 07:28:56;;;;;;;48.03;23.30;;;14.20;99.90;;;;;;4965377;28;20054;-94
2021/09/16 07:31:35;;;;;;;48.20;24.77;;;14.00;99.90;;;;;;5024374;28;20059;-92
2021/09/16 07:34:16;;;;;;;57.17;28.83;;;14.10;99.90;;;;;;5041843;28;20059;-92
2021/09/16 07:37:48;;;;;;;46.22;24.35;;;15.60;99.90;;;;;;5027346;28;20063;-93
2021/09/16 07:40:51;;;;;;;41.35;23.15;;;14.10;99.90;;;;;;5073050;28;20049;-92
2021/09/16 07:48:09;;;;;;;39.65;20.05;;;14.70;99.90;;;;;;5043197;28;20056;-92
2021/09/16 07:51:10;;;;;;;41.33;21.40;;;14.80;99.90;;;;;;5018066;28;20053;-91
2021/09/16 07:54:51;;;;;;;37.28;19.48;;;15.40;99.90;;;;;;5046543;22;20053;-93
2021/09/16 07:57:35;;;;;;;33.85;18.92;;;15.40;99.90;;;;;;5036834;28;20326;-92
2021/09/16 08:00:51;;;;;;;38.45;18.65;;;15.30;99.90;;;;;;5026804;28;20524;-92
2021/09/16 08:08:32;;;;;;;36.92;17.20;;;15.70;99.90;;;;;;5054800;28;20373;-93
2021/09/16 08:11:53;;;;;;;31.60;15.75;;;16.00;99.90;;;;;;5055874;28;20045;-92
2021/09/16 08:14:57;;;;;;;29.67;16.50;;;16.40;99.90;;;;;;5046965;28;20063;-93
2021/09/16 08:18:16;;;;;;;29.35;15.95;;;16.50;99.90;;;;;;5039094;28;20408;-93
2021/09/16 08:22:02;;;;;;;30.65;15.77;;;16.70;99.90;;;;;;5056799;28;20049;-93
2021/09/16 08:25:27;;;;;;;27.25;13.93;;;17.00;99.90;;;;;;5045597;28;20399;-93
2021/09/16 08:28:21;;;;;;;24.67;11.90;;;17.20;99.90;;;;;;5020369;28;20052;-92
2021/09/16 08:31:25;;;;;;;28.20;13.90;;;17.30;99.90;;;;;;5037863;28;20049;-93
2021/09/16 08:35:02;;;;;;;27.52;13.15;;;17.40;99.90;;;;;;5064761;28;20071;-92
2021/09/16 08:38:16;;;;;;;30.52;15.48;;;17.50;99.90;;;;;;5052602;28;20056;-92
2021/09/16 08:41:01;;;;;;;31.60;15.82;;;17.60;99.90;;;;;;5046869;28;20582;-93
2021/09/16 08:43:57;;;;;;;31.00;15.50;;;17.50;99.90;;;;;;5029289;28;20045;-93
2021/09/16 08:46:53;;;;;;;29.92;16.33;;;17.50;99.90;;;;;;5056889;28;20049;-92
2021/09/16 08:49:54;;;;;;;33.15;15.00;;;17.40;99.90;;;;;;5028809;28;20041;-93
2021/09/16 21:45:37;;;;;;;32.92;20.15;;;15.90;99.90;;;;;;5087754;28;20068;-79
2021/09/16 21:48:11;;;;;;;35.75;19.13;;;16.70;99.90;;;;;;5067999;28;20040;-83
2021/09/16 21:50:41;;;;;;;35.03;18.70;;;16.60;99.90;;;;;;5036293;28;20056;-83
2021/09/16 21:53:09;;;;;;;36.55;20.55;;;16.70;99.90;;;;;;5048577;28;20053;-82
2021/09/16 21:55:50;;;;;;;39.72;20.30;;;16.60;99.90;;;;;;5024253;28;20052;-80
2021/09/16 21:58:21;;;;;;;36.80;19.88;;;16.10;99.90;;;;;;5083703;28;20040;-84
2021/09/16 22:00:54;;;;;;;35.05;20.48;;;16.60;99.90;;;;;;5064293;28;20051;-81
2021/09/16 22:03:25;;;;;;;35.70;20.48;;;16.60;99.90;;;;;;5066421;28;20036;-81
2021/09/16 22:05:54;;;;;;;33.88;20.85;;;16.50;99.90;;;;;;5056557;28;20048;-84
2021/09/16 22:08:22;;;;;;;33.92;21.95;;;16.50;99.90;;;;;;5080665;28;20048;-80
2021/09/16 22:10:53;;;;;;;32.00;19.00;;;16.50;99.90;;;;;;5072090;28;20053;-82
2021/09/16 22:13:21;;;;;;;33.75;20.00;;;16.40;99.90;;;;;;5077056;28;20578;-85
2021/09/16 22:15:51;;;;;;;38.03;20.52;;;16.40;99.90;;;;;;5068607;28;20061;-82
2021/09/16 22:18:19;;;;;;;30.92;18.52;;;16.40;99.90;;;;;;5050812;28;20636;-81
2021/09/16 22:20:47;;;;;;;33.60;20.65;;;16.30;99.90;;;;;;5072322;28;20045;-80
2021/09/16 22:23:15;;;;;;;36.35;20.35;;;16.30;99.90;;;;;;5046465;28;20053;-81
2021/09/16 22:25:44;;;;;;;32.60;19.52;;;16.30;99.90;;;;;;5079900;28;20040;-81
2021/09/16 22:28:13;;;;;;;37.13;21.08;;;16.20;99.90;;;;;;5050369;28;20045;-80
2021/09/16 22:30:41;;;;;;;43.08;21.60;;;16.20;99.90;;;;;;5051237;28;20058;-80
2021/09/16 22:33:11;;;;;;;39.28;23.83;;;16.20;99.90;;;;;;5050674;28;20048;-81
2021/09/16 22:35:39;;;;;;;35.30;20.85;;;16.10;99.90;;;;;;5084316;28;20138;-79
2021/09/16 22:38:09;;;;;;;38.90;22.75;;;16.10;99.90;;;;;;5065553;28;20407;-81
2021/09/16 22:40:37;;;;;;;35.17;22.02;;;16.10;99.90;;;;;;5061288;28;20047;-80
2021/09/16 22:43:05;;;;;;;34.42;23.35;;;16.10;99.90;;;;;;5067874;28;20040;-82
2021/09/16 22:45:37;;;;;;;34.90;21.73;;;16.10;99.90;;;;;;5049470;28;20058;-83
2021/09/16 22:48:07;;;;;;;36.78;19.95;;;16.10;99.90;;;;;;5048393;28;20486;-83
2021/09/16 22:50:36;;;;;;;35.05;22.02;;;16.10;99.90;;;;;;5047655;28;20048;-81
2021/09/16 22:53:05;;;;;;;35.88;22.25;;;16.10;99.90;;;;;;5051043;28;20561;-82
2021/09/16 22:55:34;;;;;;;35.80;20.95;;;16.00;99.90;;;;;;5053329;28;20048;-82
2021/09/16 22:58:03;;;;;;;39.17;23.15;;;16.00;99.90;;;;;;5055589;28;20048;-82
2021/09/16 23:00:33;;;;;;;33.97;21.42;;;15.50;99.90;;;;;;5063673;28;20057;-81
2021/09/16 23:03:04;;;;;;;34.80;22.08;;;15.90;99.90;;;;;;5084866;28;20047;-82
2021/09/16 23:05:32;;;;;;;36.33;21.70;;;15.90;99.90;;;;;;5084656;28;20478;-81
2021/09/16 23:08:01;;;;;;;34.70;22.63;;;15.90;99.90;;;;;;5067287;28;20042;-81
2021/09/16 23:10:31;;;;;;;34.97;22.48;;;15.90;99.90;;;;;;5065708;28;20067;-82
2021/09/16 23:13:00;;;;;;;31.77;20.20;;;15.90;99.90;;;;;;5066436;28;20079;-83
2021/09/16 23:15:29;;;;;;;33.42;19.23;;;15.80;99.90;;;;;;5089587;28;20045;-84
2021/09/16 23:17:58;;;;;;;32.83;19.40;;;15.90;99.90;;;;;;5051950;28;20058;-80
2021/09/16 23:20:27;;;;;;;37.10;22.85;;;15.80;99.90;;;;;;5064491;28;20049;-83
2021/09/16 23:22:56;;;;;;;35.63;20.90;;;15.80;99.90;;;;;;5070856;28;20037;-82
2021/09/16 23:25:25;;;;;;;34.35;21.42;;;15.80;99.90;;;;;;5083683;28;20044;-81
2021/09/16 23:27:53;;;;;;;33.97;21.08;;;15.80;99.90;;;;;;5071058;28;20367;-79
2021/09/16 23:30:21;;;;;;;32.83;20.30;;;15.80;99.90;;;;;;5039084;28;20055;-83
2021/09/16 23:32:49;;;;;;;38.63;23.17;;;15.70;99.90;;;;;;5055996;28;20058;-81
2021/09/16 23:35:19;;;;;;;35.22;21.38;;;15.70;99.90;;;;;;5072758;28;20364;-80
2021/09/16 23:37:47;;;;;;;35.47;21.95;;;15.70;99.90;;;;;;5088169;28;20036;-81
2021/09/16 23:40:16;;;;;;;31.88;21.25;;;15.60;99.90;;;;;;5086816;28;20036;-81
2021/09/16 23:42:44;;;;;;;33.15;19.30;;;15.60;99.90;;;;;;5040261;28;20060;-80
2021/09/16 23:45:14;;;;;;;32.40;21.02;;;15.50;99.90;;;;;;5087507;28;20051;-80
2021/09/16 23:47:44;;;;;;;36.00;20.57;;;15.50;99.90;;;;;;5072037;28;20045;-83
2021/09/16 23:50:12;;;;;;;37.15;21.10;;;15.50;99.90;;;;;;5085562;28;20053;-80
2021/09/16 23:52:43;;;;;;;33.53;20.55;;;15.40;99.90;;;;;;5087516;28;20044;-83
2021/09/16 23:55:13;;;;;;;35.90;20.75;;;15.40;99.90;;;;;;5087518;28;20051;-83
2021/09/16 23:57:41;;;;;;;35.60;19.60;;;15.40;99.90;;;;;;5051898;28;20702;-82
